createdAt,value
2022-10-17T00:01:34.549Z,89.66
2022-10-17T00:06:37.382Z,89.94
2022-10-17T00:11:39.508Z,89.93
2022-10-17T00:16:41.148Z,89.91
2022-10-17T00:21:42.760Z,89.79
2022-10-17T00:26:44.434Z,90.36
2022-10-17T00:31:46.196Z,90.68
2022-10-17T00:36:48.502Z,90.98
2022-10-17T00:41:50.616Z,91.03
2022-10-17T00:46:52.217Z,91.32
2022-10-17T00:51:59.381Z,91.17
2022-10-17T00:57:01.512Z,91.32
2022-10-17T01:02:15.487Z,91.50
2022-10-17T01:07:17.259Z,91.67
2022-10-17T01:12:21.208Z,91.75
2022-10-17T01:17:34.095Z,91.62
2022-10-17T01:22:59.314Z,91.36
2022-10-17T01:28:24.149Z,91.62
2022-10-17T01:33:36.944Z,91.66
2022-10-17T01:39:00.894Z,91.56
2022-10-17T01:44:08.637Z,91.90
2022-10-17T01:49:10.836Z,91.82
2022-10-17T01:54:25.169Z,91.51
2022-10-17T01:59:37.781Z,91.61
2022-10-17T02:04:41.547Z,91.44
2022-10-17T02:09:43.270Z,91.36
2022-10-17T02:14:54.504Z,91.35
2022-10-17T02:20:17.676Z,91.42
2022-10-17T02:25:31.212Z,91.49
2022-10-17T02:30:44.598Z,90.98
2022-10-17T02:35:49.882Z,91.01
2022-10-17T02:40:53.136Z,91.29
2022-10-17T02:45:56.141Z,91.59
2022-10-17T02:51:04.556Z,91.44
2022-10-17T02:56:21.388Z,91.65
2022-10-17T03:01:23.254Z,91.52
2022-10-17T03:06:25.205Z,91.27
2022-10-17T03:11:26.824Z,91.27
2022-10-17T03:16:28.638Z,91.48
2022-10-17T03:21:30.799Z,91.40
2022-10-17T03:26:32.841Z,91.41
2022-10-17T03:31:34.654Z,90.96
2022-10-17T03:36:37.316Z,90.92
2022-10-17T03:41:39.181Z,90.67
2022-10-17T03:46:42.144Z,90.82
2022-10-17T03:51:43.767Z,90.74
2022-10-17T03:56:48.926Z,90.85
2022-10-17T04:01:53.310Z,91.13
2022-10-17T04:06:56.334Z,91.05
2022-10-17T04:11:58.080Z,90.99
2022-10-17T04:16:59.771Z,91.05
2022-10-17T04:22:04.089Z,90.91
2022-10-17T04:27:09.260Z,91.17
2022-10-17T04:32:15.205Z,91.17
2022-10-17T04:37:20.251Z,91.16
2022-10-17T04:42:24.453Z,91.12
2022-10-17T04:47:28.357Z,91.14
2022-10-17T04:52:32.081Z,91.19
2022-10-17T04:57:35.654Z,91.03
2022-10-17T05:02:56.339Z,91.06
2022-10-17T05:07:58.174Z,90.96
2022-10-17T05:13:04.270Z,90.94
2022-10-17T05:18:07.875Z,90.99
2022-10-17T05:23:10.564Z,90.95
2022-10-17T05:28:15.814Z,91.07
2022-10-17T05:33:18.198Z,91.06
2022-10-17T05:38:20.342Z,91.08
2022-10-17T05:43:22.984Z,90.97
2022-10-17T05:48:25.343Z,90.85
2022-10-17T05:53:31.058Z,90.71
2022-10-17T05:58:49.775Z,90.55
2022-10-17T06:04:19.014Z,90.30
2022-10-17T06:09:20.771Z,90.41
2022-10-17T06:14:24.842Z,90.02
2022-10-17T06:19:30.650Z,89.64
2022-10-17T06:24:32.338Z,89.48
2022-10-17T06:29:38.073Z,89.09
2022-10-17T06:34:41.099Z,88.71
2022-10-17T06:39:42.849Z,88.29
2022-10-17T06:44:50.830Z,87.93
2022-10-17T06:50:12.689Z,87.65
2022-10-17T06:55:34.464Z,87.12
2022-10-17T07:01:06.872Z,86.25
2022-10-17T07:06:13.195Z,86.02
2022-10-17T07:11:19.294Z,85.44
2022-10-17T07:16:23.492Z,84.93
2022-10-17T07:21:36.612Z,84.28
2022-10-17T07:26:41.434Z,83.56
2022-10-17T07:31:45.546Z,82.85
2022-10-17T07:36:47.546Z,82.69
2022-10-17T07:41:50.857Z,81.98
2022-10-17T07:46:53.514Z,81.35
2022-10-17T07:51:55.276Z,80.83
2022-10-17T07:56:56.878Z,80.15
2022-10-17T08:01:59.420Z,79.88
2022-10-17T08:07:17.925Z,79.56
2022-10-17T08:12:20.453Z,78.74
2022-10-17T08:17:22.080Z,78.53
2022-10-17T08:22:23.754Z,77.75
2022-10-17T08:27:27.634Z,77.68
2022-10-17T08:32:30.370Z,76.42
2022-10-17T08:37:32.785Z,76.66
2022-10-17T08:43:18.776Z,76.17
2022-10-17T08:48:24.069Z,75.90
2022-10-17T08:53:50.700Z,74.97
2022-10-17T08:58:52.604Z,74.80
2022-10-17T09:04:09.323Z,74.06
2022-10-17T09:09:35.145Z,74.21
2022-10-17T09:15:05.887Z,74.05
2022-10-17T09:20:18.588Z,73.38
2022-10-17T09:25:20.911Z,73.38
2022-10-17T09:30:50.553Z,73.56
2022-10-17T09:35:52.346Z,73.68
2022-10-17T09:40:57.221Z,73.25
2022-10-17T09:46:17.535Z,72.49
2022-10-17T09:51:25.644Z,71.84
2022-10-17T09:56:27.948Z,71.95
2022-10-17T10:01:31.211Z,71.46
2022-10-17T10:06:32.820Z,70.94
2022-10-17T10:11:50.903Z,70.83
2022-10-17T10:16:53.832Z,70.57
2022-10-17T10:21:57.845Z,69.87
2022-10-17T10:27:02.332Z,69.64
2022-10-17T10:32:18.117Z,68.78
2022-10-17T10:37:21.826Z,68.34
2022-10-17T10:42:27.689Z,67.67
2022-10-17T10:47:31.158Z,67.67
2022-10-17T10:52:40.525Z,67.04
2022-10-17T10:57:44.320Z,67.41
2022-10-17T11:02:54.854Z,66.09
2022-10-17T11:08:15.243Z,66.04
2022-10-17T11:13:41.210Z,65.50
2022-10-17T11:18:50.629Z,65.26
2022-10-17T11:23:59.527Z,63.86
2022-10-17T11:29:04.222Z,63.44
2022-10-17T11:34:21.072Z,63.04
2022-10-17T11:39:42.458Z,62.82
2022-10-17T11:44:44.850Z,62.23
2022-10-17T11:49:53.549Z,62.63
2022-10-17T11:54:59.528Z,62.59
2022-10-17T12:00:19.895Z,60.72
2022-10-17T12:05:27.877Z,60.81
2022-10-17T12:10:37.719Z,59.33
2022-10-17T12:15:40.986Z,58.10
2022-10-17T12:20:59.428Z,57.76
2022-10-17T12:26:05.430Z,57.03
2022-10-17T12:31:33.572Z,56.63
2022-10-17T12:36:35.605Z,56.52
2022-10-17T12:41:40.104Z,57.47
2022-10-17T12:46:57.711Z,56.80
2022-10-17T12:52:25.797Z,57.03
2022-10-17T12:57:46.892Z,56.80
2022-10-17T13:02:50.332Z,56.98
2022-10-17T13:07:52.426Z,56.74
2022-10-17T13:13:06.270Z,56.37
2022-10-17T13:18:19.691Z,56.24
2022-10-17T13:23:26.315Z,55.63
2022-10-17T13:28:29.171Z,55.26
2022-10-17T13:33:34.917Z,55.42
2022-10-17T13:38:40.304Z,55.33
2022-10-17T13:43:44.346Z,55.53
2022-10-17T13:48:45.949Z,55.85
2022-10-17T13:53:47.609Z,56.10
2022-10-17T13:59:01.523Z,56.34
2022-10-17T14:04:09.527Z,56.96
2022-10-17T14:09:22.814Z,57.00
2022-10-17T14:14:26.040Z,57.24
2022-10-17T14:19:30.204Z,57.80
2022-10-17T14:24:35.794Z,57.89
2022-10-17T14:30:00.937Z,57.66
2022-10-17T14:35:30.182Z,57.42
2022-10-17T14:40:28.185Z,57.80
2022-10-17T14:45:33.863Z,57.89
2022-10-17T14:50:36.259Z,58.83
2022-10-17T14:55:40.190Z,59.52
2022-10-17T15:00:41.785Z,59.80
2022-10-17T15:05:43.394Z,60.26
2022-10-17T15:10:46.366Z,60.90
2022-10-17T15:15:51.842Z,61.77
2022-10-17T15:21:04.500Z,62.63
2022-10-17T15:26:13.823Z,63.04
2022-10-17T15:31:19.503Z,63.71
2022-10-17T15:36:24.358Z,63.83
2022-10-17T15:41:28.913Z,64.19
2022-10-17T15:46:33.193Z,64.68
2022-10-17T15:51:34.825Z,65.18
2022-10-17T15:56:41.612Z,65.64
2022-10-17T16:01:43.243Z,66.43
2022-10-17T16:06:44.872Z,67.04
2022-10-17T16:11:46.555Z,67.08
2022-10-17T16:16:48.148Z,67.31
2022-10-17T16:21:49.756Z,68.42
2022-10-17T16:26:51.443Z,68.82
2022-10-17T16:31:53.034Z,68.46
2022-10-17T16:36:54.628Z,69.38
2022-10-17T16:41:58.541Z,69.97
2022-10-17T16:47:00.538Z,70.20
2022-10-17T16:52:02.178Z,70.37
2022-10-17T16:57:04.409Z,71.14
2022-10-17T17:02:06.361Z,71.33
2022-10-17T17:07:08.228Z,71.81
2022-10-17T17:12:09.909Z,71.78
2022-10-17T17:17:19.518Z,72.30
2022-10-17T17:22:32.182Z,71.17
2022-10-17T17:27:33.848Z,71.04
2022-10-17T17:32:35.536Z,71.64
2022-10-17T17:37:37.208Z,71.92
2022-10-17T17:42:38.837Z,72.26
2022-10-17T17:47:40.526Z,72.61
2022-10-17T17:52:45.466Z,73.32
2022-10-17T17:57:47.191Z,73.80
2022-10-17T18:02:48.826Z,74.07
2022-10-17T18:07:50.410Z,74.49
2022-10-17T18:12:52.291Z,75.16
2022-10-17T18:17:53.947Z,75.70
2022-10-17T18:22:57.331Z,76.29
2022-10-17T18:28:01.387Z,77.16
2022-10-17T18:33:02.973Z,77.33
2022-10-17T18:38:04.581Z,77.84
2022-10-17T18:43:06.303Z,78.19
2022-10-17T18:48:09.986Z,78.34
2022-10-17T18:53:11.586Z,78.85
2022-10-17T18:58:13.201Z,78.86
2022-10-17T19:03:15.236Z,79.16
2022-10-17T19:08:16.843Z,79.25
2022-10-17T19:13:21.541Z,79.46
2022-10-17T19:18:23.423Z,79.58
2022-10-17T19:23:25.022Z,79.71
2022-10-17T19:28:26.952Z,79.87
2022-10-17T19:38:35.514Z,80.26
2022-10-17T19:43:38.765Z,80.15
2022-10-17T19:48:40.740Z,80.68
2022-10-17T19:53:43.121Z,80.78
2022-10-17T19:58:46.562Z,81.22
2022-10-17T20:03:48.765Z,81.22
2022-10-17T20:08:50.830Z,81.64
2022-10-17T20:13:53.432Z,82.13
2022-10-17T20:18:56.934Z,82.26
2022-10-17T20:24:02.662Z,82.38
2022-10-17T20:29:08.647Z,82.65
2022-10-17T20:34:13.725Z,82.32
2022-10-17T20:39:17.259Z,82.75
2022-10-17T20:44:18.900Z,82.63
2022-10-17T20:49:20.972Z,82.58
2022-10-17T20:54:22.726Z,82.99
2022-10-17T20:59:25.788Z,82.74
2022-10-17T21:04:46.834Z,82.98
2022-10-17T21:09:48.862Z,83.23
2022-10-17T21:14:50.472Z,82.92
2022-10-17T21:19:52.073Z,82.65
2022-10-17T21:24:53.735Z,82.25
2022-10-17T21:29:55.607Z,82.11
2022-10-17T21:34:57.321Z,82.25
2022-10-17T21:39:58.925Z,82.73
2022-10-17T21:45:00.549Z,83.15
2022-10-17T21:50:02.186Z,83.63
2022-10-17T21:55:04.032Z,83.84
2022-10-17T22:00:06.014Z,83.97
2022-10-17T22:05:14.122Z,83.83
2022-10-17T22:10:15.839Z,84.02
2022-10-17T22:15:17.467Z,84.22
2022-10-17T22:20:19.081Z,83.81
2022-10-17T22:25:20.694Z,84.05
2022-10-17T22:30:22.418Z,84.34
2022-10-17T22:35:24.010Z,84.06
2022-10-17T22:40:25.659Z,84.46
2022-10-17T22:45:27.491Z,84.65
2022-10-17T22:50:29.288Z,84.72
2022-10-17T22:55:31.005Z,84.38
2022-10-17T23:00:32.754Z,84.53
2022-10-17T23:05:34.371Z,84.72
2022-10-17T23:10:45.717Z,84.75
2022-10-17T23:15:51.627Z,85.18
2022-10-17T23:20:54.004Z,84.55
2022-10-17T23:25:56.434Z,84.68
2022-10-17T23:30:58.018Z,85.27
2022-10-17T23:35:59.619Z,85.20
2022-10-17T23:41:01.197Z,85.04
2022-10-17T23:46:04.142Z,85.04
2022-10-17T23:51:06.840Z,85.26
2022-10-17T23:56:10.149Z,84.87
